ミラノ/マルペンサ の空港の天気 - METARとTAF

ミラノ・マルペンサ国際空港 ( LIMC / MXP ) - イタリア ミラノ
飛行場実況気象(Metar)
観測時間08/25 20:50 CEST (08/25 18:50 UTC)
風向・風速南南西 2m/s
視程10km以上
天気現象
なし
気温27℃
湿度54%
気圧1018hPa
METARLIMC 251850Z 21004KT CAVOK 27/17 Q1018 NOSIG
過去の天気等 Google飛行場航空写真 Wunderground天気予報

過去48時間のMETAR

飛行場予報(TAF)
発表時間: 8/25 19:15 CEST (8/25 17:15 UTC)
予報対象時間: 25日20時 CEST ~ 27日2時 CEST
風向・風速南西 3m/s
視程10km以上
全天の4割程度の雲 雲底高度 1830m
TAF LIMC 251715Z 2518/2624 22005KT 9999 SCT060